createdAt,value
2023-02-02T00:01:52.533Z,0.65
2023-02-02T00:04:28.377Z,0.65
2023-02-02T00:06:57.778Z,0.67
2023-02-02T00:09:29.446Z,0.66
2023-02-02T00:11:59.548Z,0.66
2023-02-02T00:14:28.861Z,0.64
2023-02-02T00:16:58.367Z,0.61
2023-02-02T00:19:30.842Z,0.58
2023-02-02T00:22:00.045Z,0.53
2023-02-02T00:24:29.340Z,0.49
2023-02-02T00:26:59.668Z,0.47
2023-02-02T00:29:30.839Z,0.47
2023-02-02T00:32:00.158Z,0.47
2023-02-02T00:34:29.344Z,0.46
2023-02-02T00:37:01.432Z,0.45
2023-02-02T00:39:31.254Z,0.45
2023-02-02T00:42:00.274Z,0.45
2023-02-02T00:44:47.631Z,0.44
2023-02-02T00:47:18.320Z,0.44
2023-02-02T00:49:47.273Z,0.44
2023-02-02T00:52:18.854Z,0.45
2023-02-02T00:54:47.813Z,0.44
2023-02-02T00:57:16.686Z,0.44
2023-02-02T00:59:45.493Z,0.44
2023-02-02T01:02:14.343Z,0.44
2023-02-02T01:04:43.577Z,0.45
2023-02-02T01:07:12.638Z,0.45
2023-02-02T01:09:41.599Z,0.46
2023-02-02T01:12:15.345Z,0.46
2023-02-02T01:14:44.900Z,0.48
2023-02-02T01:17:14.712Z,0.49
2023-02-02T01:19:43.672Z,0.49
2023-02-02T01:22:14.217Z,0.49
2023-02-02T01:24:43.069Z,0.49
2023-02-02T01:27:12.318Z,0.50
2023-02-02T01:29:41.309Z,0.50
2023-02-02T01:32:11.479Z,0.50
2023-02-02T01:34:42.249Z,0.51
2023-02-02T01:37:13.054Z,0.52
2023-02-02T01:39:42.903Z,0.52
2023-02-02T01:42:14.458Z,0.53
2023-02-02T01:45:02.491Z,0.53
2023-02-02T01:47:43.326Z,0.55
2023-02-02T01:50:12.952Z,0.57
2023-02-02T01:52:41.811Z,0.57
2023-02-02T01:55:13.345Z,0.57
2023-02-02T01:57:51.337Z,0.56
2023-02-02T02:00:25.780Z,0.56
2023-02-02T02:03:01.135Z,0.55
2023-02-02T02:05:35.917Z,0.57
2023-02-02T02:08:12.899Z,0.56
2023-02-02T02:10:42.135Z,0.56
2023-02-02T02:13:11.728Z,0.56
2023-02-02T02:16:19.855Z,0.55
2023-02-02T02:19:14.402Z,0.55
2023-02-02T02:22:06.931Z,0.54
2023-02-02T02:25:10.168Z,0.53
2023-02-02T02:28:05.557Z,0.54
2023-02-02T02:31:01.165Z,0.54
2023-02-02T02:34:02.876Z,0.55
2023-02-02T02:36:31.814Z,0.56
2023-02-02T02:39:09.923Z,0.56
2023-02-02T02:41:44.265Z,0.56
2023-02-02T02:44:14.973Z,0.56
2023-02-02T02:46:45.157Z,0.56
2023-02-02T02:49:14.217Z,0.57
2023-02-02T02:51:44.908Z,0.57
2023-02-02T02:54:25.292Z,0.57
2023-02-02T02:57:06.986Z,0.58
2023-02-02T02:59:39.399Z,0.57
2023-02-02T03:02:37.778Z,0.58
2023-02-02T03:05:44.470Z,0.58
2023-02-02T03:08:27.405Z,0.58
2023-02-02T03:10:56.502Z,0.58
2023-02-02T03:13:26.379Z,0.58
2023-02-02T03:15:55.231Z,0.58
2023-02-02T03:18:26.246Z,0.59
2023-02-02T03:20:55.048Z,0.58
2023-02-02T03:23:23.814Z,0.58
2023-02-02T03:25:52.583Z,0.60
2023-02-02T03:28:21.732Z,0.62
2023-02-02T03:30:50.656Z,0.64
2023-02-02T03:33:19.630Z,0.63
2023-02-02T03:35:48.522Z,0.64
2023-02-02T03:38:22.344Z,0.65
2023-02-02T03:40:51.800Z,0.66
2023-02-02T03:43:22.082Z,0.66
2023-02-02T03:46:05.028Z,0.66
2023-02-02T03:48:37.832Z,0.66
2023-02-02T03:51:13.269Z,0.66
2023-02-02T05:44:26.543Z,-0.32
2023-02-02T05:46:54.663Z,-0.31
2023-02-02T05:49:21.973Z,-0.28
2023-02-02T05:51:54.279Z,-0.23
2023-02-02T05:54:22.185Z,-0.19
2023-02-02T05:56:51.027Z,-0.15
2023-02-02T05:59:18.959Z,-0.09
2023-02-02T06:01:46.583Z,-0.03
2023-02-02T06:04:14.200Z,0.05
2023-02-02T06:06:42.028Z,0.13
2023-02-02T06:09:09.679Z,0.20
2023-02-02T06:11:39.153Z,0.27
2023-02-02T06:14:07.280Z,0.32
2023-02-02T06:16:36.960Z,0.37
2023-02-02T06:19:04.311Z,0.42
2023-02-02T06:21:32.287Z,0.45
2023-02-02T06:23:59.764Z,0.49
2023-02-02T06:26:27.472Z,0.53
2023-02-02T06:28:55.218Z,0.59
2023-02-02T06:31:22.918Z,0.62
2023-02-02T06:33:55.502Z,0.66
2023-02-02T06:36:23.358Z,0.67
2023-02-02T06:38:51.642Z,0.69
2023-02-02T06:41:20.191Z,0.73
2023-02-02T06:43:47.950Z,0.76
2023-02-02T06:46:15.424Z,0.79
2023-02-02T06:48:43.597Z,0.80
2023-02-02T06:51:10.883Z,0.83
2023-02-02T06:53:38.182Z,0.87
2023-02-02T06:56:06.926Z,0.90
2023-02-02T06:58:34.889Z,0.93
2023-02-02T07:01:12.803Z,0.96
2023-02-02T07:03:40.787Z,0.99
2023-02-02T07:06:17.871Z,1.03
2023-02-02T07:08:45.775Z,1.07
2023-02-02T07:11:24.681Z,1.11
2023-02-02T07:13:54.993Z,1.17
2023-02-02T07:16:22.244Z,1.20
2023-02-02T07:18:49.611Z,1.26
2023-02-02T07:21:18.854Z,1.32
2023-02-02T07:23:46.511Z,1.37
2023-02-02T07:26:14.618Z,1.41
2023-02-02T07:28:42.332Z,1.48
2023-02-02T07:31:18.281Z,1.53
2023-02-02T07:33:45.992Z,1.57
2023-02-02T07:36:15.875Z,1.60
2023-02-02T07:38:44.418Z,1.63
2023-02-02T07:41:12.182Z,1.66
2023-02-02T07:43:39.630Z,1.69
2023-02-02T07:46:12.529Z,1.71
2023-02-02T07:48:40.551Z,1.73
2023-02-02T07:51:09.978Z,1.77
2023-02-02T07:53:38.515Z,1.83
2023-02-02T07:56:10.428Z,1.90
2023-02-02T07:58:38.450Z,1.96
2023-02-02T08:01:07.343Z,2.01
2023-02-02T08:03:36.014Z,2.04
2023-02-02T08:06:28.156Z,2.06
2023-02-02T08:08:55.794Z,2.08
2023-02-02T08:11:23.856Z,2.10
2023-02-02T08:26:43.461Z,2.35
2023-02-02T08:29:11.355Z,2.40
2023-02-02T08:31:41.486Z,2.42
2023-02-02T08:34:09.553Z,2.46
2023-02-02T08:36:37.026Z,2.52
2023-02-02T08:39:06.549Z,2.56
2023-02-02T08:41:36.688Z,2.58
2023-02-02T08:44:11.163Z,2.59
2023-02-02T08:46:39.650Z,2.63
2023-02-02T08:49:07.449Z,2.68
2023-02-02T08:51:35.806Z,2.75
2023-02-02T08:54:03.354Z,2.82
2023-02-02T08:56:31.669Z,2.87
2023-02-02T08:58:59.548Z,2.95
2023-02-02T09:01:31.684Z,3.01
2023-02-02T09:04:04.422Z,3.04
2023-02-02T09:06:34.951Z,3.06
2023-02-02T09:09:04.827Z,3.14
2023-02-02T09:11:32.519Z,3.21
2023-02-02T09:14:06.137Z,3.26
2023-02-02T09:16:34.644Z,3.33
2023-02-02T09:19:02.409Z,3.41
2023-02-02T09:21:30.251Z,3.45
2023-02-02T09:23:57.955Z,3.45
2023-02-02T09:26:27.481Z,3.47
2023-02-02T09:29:02.341Z,3.49
2023-02-02T09:31:35.164Z,3.53
2023-02-02T09:34:07.886Z,3.55
2023-02-02T09:36:36.338Z,3.56
2023-02-02T09:39:05.828Z,3.57
2023-02-02T09:41:40.290Z,3.54
2023-02-02T09:44:08.047Z,3.56
2023-02-02T09:46:55.357Z,3.59
2023-02-02T09:49:55.092Z,3.61
2023-02-02T09:52:41.339Z,3.60
2023-02-02T09:55:38.614Z,3.60
2023-02-02T09:58:16.798Z,3.57
2023-02-02T10:00:53.244Z,3.58
2023-02-02T10:03:53.923Z,3.64
2023-02-02T10:06:28.189Z,3.67
2023-02-02T10:09:01.913Z,3.68
2023-02-02T10:11:38.575Z,3.68
2023-02-02T10:14:18.244Z,3.66
2023-02-02T10:16:47.164Z,3.59
2023-02-02T10:19:14.894Z,3.50
2023-02-02T10:22:06.392Z,3.42
2023-02-02T10:24:35.816Z,3.34
2023-02-02T10:27:11.963Z,3.27
2023-02-02T10:29:49.540Z,3.23
2023-02-02T10:32:27.575Z,3.21
2023-02-02T10:35:24.029Z,3.19
2023-02-02T10:38:07.908Z,3.17
2023-02-02T10:40:44.100Z,3.13
2023-02-02T10:43:46.070Z,3.09
2023-02-02T10:46:49.474Z,3.06
2023-02-02T10:49:30.802Z,3.00
2023-02-02T10:52:06.406Z,2.93
2023-02-02T10:54:55.311Z,2.89
2023-02-02T10:57:50.069Z,2.84
2023-02-02T11:00:23.418Z,2.77
2023-02-02T11:02:51.775Z,2.73
2023-02-02T11:05:47.511Z,2.75
2023-02-02T11:08:35.652Z,2.81
2023-02-02T11:11:11.642Z,2.86
2023-02-02T11:13:42.764Z,2.92
2023-02-02T11:16:15.250Z,2.96
2023-02-02T11:18:44.256Z,3.01
2023-02-02T11:21:32.504Z,3.07
2023-02-02T11:24:05.793Z,3.14
2023-02-02T11:26:46.079Z,3.19
2023-02-02T11:29:20.355Z,3.24
2023-02-02T11:31:47.932Z,3.28
2023-02-02T11:34:20.481Z,3.31
2023-02-02T11:37:11.911Z,3.33
2023-02-02T11:39:42.758Z,3.33
2023-02-02T11:42:16.155Z,3.37
2023-02-02T11:44:52.672Z,3.42
2023-02-02T11:47:31.297Z,3.46
2023-02-02T11:50:01.278Z,3.51
2023-02-02T11:52:32.462Z,3.53
2023-02-02T11:55:09.902Z,3.57
2023-02-02T11:57:37.558Z,3.61
2023-02-02T12:00:11.093Z,3.63
2023-02-02T12:02:40.885Z,3.62
2023-02-02T12:05:20.792Z,3.61
2023-02-02T12:07:48.963Z,3.59
2023-02-02T12:10:38.959Z,3.57
2023-02-02T12:13:22.552Z,3.51
2023-02-02T12:15:58.974Z,3.46
2023-02-02T12:18:40.863Z,3.40
2023-02-02T12:21:27.879Z,3.36
2023-02-02T12:23:55.483Z,3.29
2023-02-02T12:26:23.125Z,3.24
2023-02-02T12:29:15.667Z,3.19
2023-02-02T12:31:49.632Z,3.15
2023-02-02T12:34:30.250Z,3.12
2023-02-02T12:37:42.723Z,3.11
2023-02-02T12:40:39.318Z,3.09
2023-02-02T12:43:36.211Z,3.10
2023-02-02T12:46:12.765Z,3.15
2023-02-02T12:48:48.012Z,3.17
2023-02-02T12:51:46.491Z,3.20
2023-02-02T12:54:33.066Z,3.21
2023-02-02T12:57:32.525Z,3.19
2023-02-02T13:00:23.984Z,3.18
2023-02-02T13:03:11.580Z,3.20
2023-02-02T13:06:04.505Z,3.22
2023-02-02T13:08:40.852Z,3.23
2023-02-02T13:11:29.837Z,3.22
2023-02-02T13:14:24.492Z,3.21
2023-02-02T13:16:55.953Z,3.18
2023-02-02T13:19:31.897Z,3.15
2023-02-02T13:22:00.756Z,3.13
2023-02-02T13:24:32.784Z,3.09
2023-02-02T13:27:01.224Z,3.05
2023-02-02T13:29:48.353Z,3.01
2023-02-02T13:32:39.660Z,2.93
2023-02-02T13:35:19.252Z,2.90
2023-02-02T13:38:01.818Z,2.89
2023-02-02T13:40:34.000Z,2.88
2023-02-02T13:43:22.323Z,2.86
2023-02-02T13:46:16.223Z,2.84
2023-02-02T13:48:47.302Z,2.82
2023-02-02T13:51:21.554Z,2.80
2023-02-02T13:54:08.714Z,2.75
2023-02-02T13:56:40.376Z,2.67
2023-02-02T13:59:30.758Z,2.59
2023-02-02T14:01:58.298Z,2.51
2023-02-02T14:04:29.836Z,2.43
2023-02-02T14:07:06.952Z,2.37
2023-02-02T14:09:35.765Z,2.30
2023-02-02T14:12:09.085Z,2.25
2023-02-02T14:14:38.948Z,2.22
2023-02-02T14:17:17.022Z,2.19
2023-02-02T14:19:55.340Z,2.16
2023-02-02T14:22:42.974Z,2.11
2023-02-02T14:25:29.211Z,2.05
2023-02-02T14:27:58.358Z,1.98
2023-02-02T14:30:32.424Z,1.90
2023-02-02T14:33:27.484Z,1.82
2023-02-02T14:35:56.186Z,1.75
2023-02-02T14:38:23.645Z,1.70
2023-02-02T14:41:00.137Z,1.63
2023-02-02T14:43:45.326Z,1.56
2023-02-02T14:46:13.210Z,1.50
2023-02-02T14:49:06.779Z,1.46
2023-02-02T14:51:34.876Z,1.42
2023-02-02T14:54:06.031Z,1.39
2023-02-02T14:56:51.661Z,1.37
2023-02-02T14:59:22.658Z,1.35
2023-02-02T15:02:19.642Z,1.33
2023-02-02T15:04:47.922Z,1.32
2023-02-02T15:07:24.763Z,1.30
2023-02-02T15:09:58.005Z,1.28
2023-02-02T15:12:25.683Z,1.25
2023-02-02T15:15:24.834Z,1.21
2023-02-02T15:18:12.284Z,1.17
2023-02-02T15:20:48.527Z,1.14
2023-02-02T15:23:42.255Z,1.11
2023-02-02T15:26:17.824Z,1.09
2023-02-02T15:29:05.238Z,1.08
2023-02-02T15:31:54.020Z,1.07
2023-02-02T15:34:39.522Z,1.06
2023-02-02T15:37:08.468Z,1.06
2023-02-02T15:39:41.439Z,1.07
2023-02-02T15:42:48.593Z,1.10
2023-02-02T15:45:31.510Z,1.14
2023-02-02T15:47:59.899Z,1.15
2023-02-02T15:50:27.373Z,1.17
2023-02-02T15:52:55.094Z,1.16
2023-02-02T15:55:24.528Z,1.16
2023-02-02T15:57:54.242Z,1.16
2023-02-02T16:00:33.523Z,1.18
2023-02-02T16:03:12.532Z,1.19
2023-02-02T16:05:48.491Z,1.19
2023-02-02T16:08:33.946Z,1.18
2023-02-02T16:11:07.219Z,1.19
2023-02-02T16:13:35.537Z,1.20
2023-02-02T16:16:08.774Z,1.17
2023-02-02T16:18:37.581Z,1.13
2023-02-02T16:21:09.611Z,1.10
2023-02-02T16:23:37.243Z,1.06
2023-02-02T16:26:05.758Z,1.02
2023-02-02T16:28:33.309Z,0.98
2023-02-02T16:31:01.307Z,0.94
2023-02-02T16:33:37.508Z,0.90
2023-02-02T16:36:25.089Z,0.85
2023-02-02T16:38:57.548Z,0.80
2023-02-02T16:41:35.384Z,0.77
2023-02-02T16:44:51.519Z,0.75
2023-02-02T16:47:25.332Z,0.70
2023-02-02T16:50:08.494Z,0.66
2023-02-02T16:52:57.741Z,0.63
2023-02-02T16:55:27.924Z,0.61
2023-02-02T16:57:59.301Z,0.60
2023-02-02T17:00:28.372Z,0.60
2023-02-02T17:03:01.060Z,0.58
2023-02-02T17:05:30.862Z,0.53
2023-02-02T17:08:05.181Z,0.53
2023-02-02T17:10:36.658Z,0.53
2023-02-02T17:13:30.432Z,0.52
2023-02-02T17:15:59.630Z,0.50
2023-02-02T17:18:27.281Z,0.48
2023-02-02T17:20:57.623Z,0.46
2023-02-02T17:23:26.679Z,0.45
2023-02-02T17:25:54.012Z,0.44
2023-02-02T17:28:23.148Z,0.43
2023-02-02T17:31:05.754Z,0.41
2023-02-02T17:33:34.928Z,0.40
2023-02-02T17:36:03.170Z,0.39
2023-02-02T17:38:32.230Z,0.41
2023-02-02T17:41:01.943Z,0.43
2023-02-02T17:43:31.900Z,0.45
2023-02-02T17:46:00.681Z,0.45
2023-02-02T17:48:30.039Z,0.44
2023-02-02T17:50:57.419Z,0.42
2023-02-02T17:53:24.846Z,0.41
2023-02-02T17:55:53.178Z,0.42
2023-02-02T17:58:20.728Z,0.42
2023-02-02T18:00:52.902Z,0.43
2023-02-02T18:03:34.122Z,0.43
2023-02-02T18:06:03.908Z,0.42
2023-02-02T18:08:32.262Z,0.41
2023-02-02T18:11:00.838Z,0.40
2023-02-02T18:13:28.940Z,0.39
2023-02-02T18:15:56.856Z,0.39
2023-02-02T18:18:24.517Z,0.39
2023-02-02T18:20:52.017Z,0.41
2023-02-02T18:23:19.665Z,0.41
2023-02-02T18:25:47.287Z,0.39
2023-02-02T18:28:17.682Z,0.38
2023-02-02T18:30:46.946Z,0.38
2023-02-02T18:33:17.082Z,0.38
2023-02-02T18:35:44.737Z,0.37
2023-02-02T18:38:13.036Z,0.34
2023-02-02T18:40:40.444Z,0.31
2023-02-02T18:43:08.400Z,0.29
2023-02-02T18:45:36.245Z,0.28
2023-02-02T18:48:04.046Z,0.29
2023-02-02T18:50:31.506Z,0.30
2023-02-02T18:52:58.983Z,0.30
2023-02-02T18:55:26.905Z,0.31
2023-02-02T18:57:54.733Z,0.31
2023-02-02T19:00:22.340Z,0.32
2023-02-02T19:02:49.710Z,0.32
2023-02-02T19:05:35.964Z,0.33
2023-02-02T19:08:05.521Z,0.34
2023-02-02T19:10:33.497Z,0.36
2023-02-02T19:13:18.978Z,0.37
2023-02-02T19:15:48.059Z,0.37
2023-02-02T19:18:22.089Z,0.38
2023-02-02T19:20:51.000Z,0.39
2023-02-02T19:23:20.347Z,0.38
2023-02-02T19:25:51.437Z,0.38
2023-02-02T19:28:30.363Z,0.39
2023-02-02T19:31:00.070Z,0.39
2023-02-02T19:33:51.279Z,0.41
2023-02-02T19:36:20.106Z,0.42
2023-02-02T19:38:48.216Z,0.43
2023-02-02T19:41:15.745Z,0.44
2023-02-02T19:43:47.305Z,0.45
2023-02-02T19:46:22.118Z,0.46
2023-02-02T20:54:45.452Z,-0.45
2023-02-02T20:57:13.503Z,-0.47
2023-02-02T20:59:41.348Z,-0.45
2023-02-02T21:02:14.852Z,-0.41
2023-02-02T21:04:46.421Z,-0.36
2023-02-02T21:07:16.662Z,-0.30
2023-02-02T21:09:44.930Z,-0.23
2023-02-02T21:12:12.701Z,-0.15
2023-02-02T21:14:40.464Z,-0.06
2023-02-02T21:17:14.948Z,0.04
2023-02-02T21:19:43.802Z,0.13
2023-02-02T21:22:11.868Z,0.20
2023-02-02T21:24:40.169Z,0.27
2023-02-02T21:27:08.698Z,0.32
2023-02-02T21:29:36.703Z,0.37
2023-02-02T21:32:04.750Z,0.42
2023-02-02T21:34:32.681Z,0.46
2023-02-02T21:37:00.110Z,0.49
2023-02-02T21:39:32.161Z,0.51
2023-02-02T21:42:08.695Z,0.52
2023-02-02T21:44:38.502Z,0.54
2023-02-02T21:47:36.023Z,0.56
2023-02-02T21:50:17.650Z,0.59
2023-02-02T21:52:45.456Z,0.59
2023-02-02T21:55:28.225Z,0.59
2023-02-02T21:57:58.048Z,0.61
2023-02-02T22:00:30.583Z,0.62
2023-02-02T22:02:58.588Z,0.62
2023-02-02T22:05:38.027Z,0.61
2023-02-02T22:08:28.108Z,0.61
2023-02-02T22:10:55.724Z,0.61
2023-02-02T22:13:24.553Z,0.61
2023-02-02T22:15:56.129Z,0.62
2023-02-02T22:18:24.654Z,0.62
2023-02-02T22:20:54.086Z,0.63
2023-02-02T22:23:23.775Z,0.63
2023-02-02T22:25:53.210Z,0.63
2023-02-02T22:28:22.314Z,0.65
2023-02-02T22:30:52.125Z,0.66
2023-02-02T22:33:19.872Z,0.66
2023-02-02T22:35:48.629Z,0.66
2023-02-02T22:38:18.182Z,0.66
2023-02-02T22:40:46.529Z,0.67
2023-02-02T22:43:16.008Z,0.66
2023-02-02T22:45:44.123Z,0.65
2023-02-02T22:48:12.573Z,0.63
2023-02-02T22:50:40.347Z,0.60
2023-02-02T22:53:08.169Z,0.58
2023-02-02T22:55:35.646Z,0.57
2023-02-02T22:58:03.993Z,0.57
2023-02-02T23:00:35.987Z,0.59
2023-02-02T23:03:03.701Z,0.61
2023-02-02T23:05:32.623Z,0.62
2023-02-02T23:08:00.135Z,0.62
2023-02-02T23:10:29.461Z,0.63
2023-02-02T23:12:58.821Z,0.64
2023-02-02T23:15:26.656Z,0.64
2023-02-02T23:17:54.499Z,0.64
2023-02-02T23:20:21.919Z,0.62
2023-02-02T23:22:50.430Z,0.60
2023-02-02T23:25:18.651Z,0.60
2023-02-02T23:27:46.709Z,0.59
2023-02-02T23:30:14.655Z,0.59
2023-02-02T23:32:42.389Z,0.60
2023-02-02T23:35:10.934Z,0.61
2023-02-02T23:37:39.037Z,0.62
2023-02-02T23:40:07.472Z,0.64
2023-02-02T23:42:35.036Z,0.64
2023-02-02T23:45:03.788Z,0.63
2023-02-02T23:47:33.516Z,0.63
2023-02-02T23:50:02.817Z,0.61
2023-02-02T23:52:31.850Z,0.61
2023-02-02T23:55:00.274Z,0.61
2023-02-02T23:57:27.852Z,0.60
2023-02-02T23:59:55.309Z,0.60
